NATIONAL KEY DEER NWR FL US current weather conditions

sailwx.info

Wind from 127 at 1 knots gusting 3

Air temperature 20.6° C
Dewpoint 16.2° C

Last reported at 2015-Apr-02 02:38 UTC.
Time now 2015-Apr-02 03:12 UTC

Location: N 24°43' W 081°23'.
View on Google Maps.

See reports from other nearby stations

  
Tides and Currents Weather Stations Pressure Air Temp Water Temp Dewpoint Dewpoint Depression Visibility Wind Speed Wind Dir Waves Ship Positions
date/time (UTC)wind fromknots sea level pressurealtimeterstation pressurevisibilityair tempwater tempwave heightnotes
2015-Apr-02 02:38 127 1 gusting 3 20.6
2015-Apr-02 01:38 138 2 gusting 5 21.1
2015-Apr-02 00:38 145 1 gusting 5 20.6
2015-Apr-01 23:38 151 2 gusting 6 23.9
2015-Apr-01 22:38 133 3 gusting 10 26.1
2015-Apr-01 21:38 112 5 gusting 10 27.2
2015-Apr-01 20:38 105 5 gusting 10 27.8
2015-Apr-01 19:38 092 5 gusting 10 27.8
2015-Apr-01 18:38 056 6 gusting 11 27.2
2015-Apr-01 17:38 049 5 gusting 8 27.2
2015-Apr-01 16:38 053 5 gusting 9 27.2
2015-Apr-01 15:38 039 5 gusting 9 26.7
2015-Apr-01 14:38 052 6 gusting 10 26.1
2015-Apr-01 13:38 052 5 gusting 7 25.0
2015-Apr-01 12:38 054 3 gusting 5 22.8
2015-Apr-01 11:38 078 1 gusting 2 16.1
2015-Apr-01 10:38 067 1 gusting 3 15.6
2015-Apr-01 09:38 15.0
2015-Apr-01 08:38 15.0
2015-Apr-01 07:38 15.6
2015-Apr-01 06:38 15.6
2015-Apr-01 05:38 16.1
2015-Apr-01 04:38 177 0 gusting 1 16.7
2015-Apr-01 03:38 166 0 gusting 1 16.7
2015-Apr-01 02:38 155 1 gusting 2 17.2
2015-Apr-01 01:38 18.3
2015-Apr-01 00:38 135 0 gusting 4 20.6
2015-Mar-31 23:38 115 2 gusting 6 22.8
2015-Mar-31 22:38 085 5 gusting 8 25.0
2015-Mar-31 21:38 106 4 gusting 10 26.1
2015-Mar-31 20:38 098 5 gusting 9 26.1
2015-Mar-31 19:38 085 5 gusting 8 26.7
2015-Mar-31 18:38 043 5 gusting 9 26.7
2015-Mar-31 17:38 044 6 gusting 10 26.1
2015-Mar-31 16:38 066 6 gusting 11 25.6
2015-Mar-31 15:38 050 6 gusting 12 25.6
2015-Mar-31 14:38 057 6 gusting 10 25.0
2015-Mar-31 13:38 047 5 gusting 8 24.4
2015-Mar-31 12:38 042 3 gusting 6 20.6
2015-Mar-31 11:38 011 1 gusting 2 13.3
2015-Mar-31 10:38 12.2
2015-Mar-31 09:38 324 0 gusting 3 13.3
2015-Mar-31 08:38 12.8
2015-Mar-31 07:38 13.3
2015-Mar-31 06:38 13.3
2015-Mar-31 05:38 13.9
2015-Mar-31 04:38 15.0
2015-Mar-31 03:38 003 1 gusting 3 15.6